Limaburg, Kentucky
Current Conditions -  °F | °C
As of 8:52 AM on Monday 26 Jan 2015 (Local Time) from KCVG Reporting Station
Broken Clouds Broken Clouds  
Wind Chill:   Ceiling: 2000
Heat Index: 21°   Visibility: 10mi
Dew Point: 16°   Wind: 12mph
Humidity: 81%   Direction: 330°NNW
Pressure: 29.87"   Gusts: NA
Location:  39.0238°N, 84.7647°W
Report Text: KCVG 261352Z 33010KT 10SM SCT014 BKN020 BKN250 M06/M09 A2987 RMK AO2 SLP122 T10611089
Loading
Personal Weather Stations






























Interactive Weather Map New forecast layout! Learn more

10-Day Weather Forecast

Advertisements
Track Severe Weather on mobile